createdAt,value
2018-12-16T00:02:00.416Z,99832.89
2018-12-16T00:04:33.148Z,99829.18
2018-12-16T00:07:08.271Z,99845.78
2018-12-16T00:09:40.911Z,99845.92
2018-12-16T00:12:14.139Z,99845.11
2018-12-16T00:14:49.335Z,99847.61
2018-12-16T00:17:23.620Z,99847.80
2018-12-16T00:19:57.357Z,99845.20
2018-12-16T00:22:30.636Z,99844.78
2018-12-16T00:25:03.755Z,99837.91
2018-12-16T00:27:36.370Z,99835.77
2018-12-16T00:30:13.591Z,99825.48
2018-12-16T00:32:47.129Z,99819.26
2018-12-16T00:35:19.876Z,99812.63
2018-12-16T00:37:54.468Z,99811.00
2018-12-16T00:40:27.256Z,99795.15
2018-12-16T00:43:01.006Z,99785.86
2018-12-16T00:45:36.279Z,99789.29
2018-12-16T00:48:12.409Z,99788.14
2018-12-16T00:50:46.581Z,99777.32
2018-12-16T00:53:22.656Z,99761.54
2018-12-16T00:55:57.041Z,99751.14
2018-12-16T00:58:29.689Z,99740.28
2018-12-16T01:01:03.346Z,99749.26
2018-12-16T01:03:36.052Z,99743.22
2018-12-16T01:06:10.068Z,99739.75
2018-12-16T01:08:45.201Z,99742.15
2018-12-16T01:11:23.466Z,99735.85
2018-12-16T01:13:58.067Z,99730.00
2018-12-16T01:16:34.860Z,99725.34
2018-12-16T01:19:13.106Z,99715.89
2018-12-16T01:21:45.844Z,99727.88
2018-12-16T01:24:19.954Z,99703.80
2018-12-16T01:26:53.656Z,99715.94
2018-12-16T01:29:26.990Z,99718.72
2018-12-16T01:32:00.964Z,99719.61
2018-12-16T01:34:33.686Z,99696.50
2018-12-16T01:37:10.833Z,99698.28
2018-12-16T01:40:01.591Z,99707.87
2018-12-16T01:42:35.175Z,99701.95
2018-12-16T01:45:08.944Z,99699.41
2018-12-16T01:47:49.506Z,99697.20
2018-12-16T01:50:31.362Z,99671.43
2018-12-16T01:53:04.533Z,99669.23
2018-12-16T01:55:38.368Z,99677.71
2018-12-16T01:58:14.633Z,99664.25
2018-12-16T02:00:47.249Z,99662.95
2018-12-16T02:03:20.012Z,99669.75
2018-12-16T02:05:53.079Z,99661.36
2018-12-16T02:08:26.242Z,99652.95
2018-12-16T02:10:58.949Z,99658.88
2018-12-16T02:13:32.980Z,99655.09
2018-12-16T02:16:06.227Z,99639.16
2018-12-16T02:18:39.412Z,99647.69
2018-12-16T02:21:12.607Z,99641.05
2018-12-16T02:23:46.131Z,99629.98
2018-12-16T02:26:18.758Z,99607.38
2018-12-16T02:28:52.351Z,99618.14
2018-12-16T02:31:25.854Z,99607.39
2018-12-16T02:33:58.507Z,99587.80
2018-12-16T02:36:32.157Z,99583.34
2018-12-16T02:39:05.683Z,99599.70
2018-12-16T02:41:38.290Z,99578.17
2018-12-16T02:44:11.465Z,99590.17
2018-12-16T02:46:44.661Z,99589.07
2018-12-16T02:49:17.448Z,99581.39
2018-12-16T02:51:51.287Z,99566.71
2018-12-16T02:54:24.090Z,99576.75
2018-12-16T02:56:56.687Z,99573.70
2018-12-16T02:59:32.068Z,99568.52
2018-12-16T03:02:05.381Z,99569.07
2018-12-16T03:04:38.643Z,99566.33
2018-12-16T03:07:11.658Z,99555.48
2018-12-16T03:09:44.395Z,99561.14
2018-12-16T03:12:17.935Z,99557.91
2018-12-16T03:14:53.191Z,99555.28
2018-12-16T03:17:26.947Z,99550.25
2018-12-16T03:19:59.586Z,99547.20
2018-12-16T03:22:33.313Z,99539.30
2018-12-16T03:25:06.733Z,99535.23
2018-12-16T03:27:39.952Z,99532.56
2018-12-16T03:30:14.742Z,99530.72
2018-12-16T03:32:49.472Z,99530.75
2018-12-16T03:35:23.185Z,99514.20
2018-12-16T03:37:55.869Z,99518.47
2018-12-16T03:40:28.637Z,99506.50
2018-12-16T03:43:04.094Z,99513.59
2018-12-16T03:45:36.885Z,99507.04
2018-12-16T03:48:09.456Z,99505.77
2018-12-16T03:50:42.359Z,99501.56
2018-12-16T03:53:19.841Z,99504.23
2018-12-16T03:55:54.160Z,99505.11
2018-12-16T03:58:28.285Z,99504.98
2018-12-16T04:01:01.017Z,99501.28
2018-12-16T04:03:33.676Z,99489.61
2018-12-16T04:06:06.587Z,99489.53
2018-12-16T04:08:40.299Z,99487.45
2018-12-16T04:11:13.000Z,99481.34
2018-12-16T04:13:48.221Z,99488.31
2018-12-16T04:16:20.822Z,99489.09
2018-12-16T04:18:53.431Z,99486.91
2018-12-16T04:21:27.476Z,99476.96
2018-12-16T04:24:00.124Z,99486.83
2018-12-16T04:26:32.918Z,99489.49
2018-12-16T04:29:06.846Z,99487.20
2018-12-16T04:31:39.872Z,99493.48
2018-12-16T04:34:13.059Z,99490.27
2018-12-16T04:36:46.070Z,99494.14
2018-12-16T04:39:18.580Z,99494.33
2018-12-16T04:41:51.195Z,99492.91
2018-12-16T04:44:24.123Z,99489.69
2018-12-16T04:46:56.663Z,99491.00
2018-12-16T04:49:29.328Z,99491.55
2018-12-16T04:52:02.412Z,99487.30
2018-12-16T04:54:35.526Z,99486.08
2018-12-16T04:57:08.032Z,99484.94
2018-12-16T04:59:41.644Z,99463.47
2018-12-16T05:02:14.267Z,99478.79
2018-12-16T05:04:46.971Z,99483.89
2018-12-16T05:07:20.964Z,99494.84
2018-12-16T05:10:23.770Z,99493.23
2018-12-16T05:12:58.085Z,99493.41
2018-12-16T05:15:30.947Z,99496.92
2018-12-16T05:18:03.745Z,99498.00
2018-12-16T05:20:36.313Z,99491.70
2018-12-16T05:23:09.248Z,99492.08
2018-12-16T05:25:41.892Z,99483.92
2018-12-16T05:28:14.659Z,99482.92
2018-12-16T05:30:47.610Z,99475.01
2018-12-16T05:33:20.420Z,99477.14
2018-12-16T05:35:53.019Z,99482.56
2018-12-16T05:38:25.888Z,99476.02
2018-12-16T05:40:58.571Z,99467.56
2018-12-16T05:43:31.307Z,99464.52
2018-12-16T05:46:04.332Z,99459.86
2018-12-16T05:48:37.221Z,99455.60
2018-12-16T05:51:09.841Z,99456.09
2018-12-16T05:53:48.367Z,99450.33
2018-12-16T05:56:22.641Z,99462.72
2018-12-16T05:58:55.411Z,99473.68
2018-12-16T06:01:28.393Z,99445.69
2018-12-16T06:04:00.952Z,99475.24
2018-12-16T06:06:33.547Z,99468.05
2018-12-16T06:09:07.156Z,99467.47
2018-12-16T06:11:39.720Z,99467.69
2018-12-16T06:14:13.305Z,99468.77
2018-12-16T06:16:46.360Z,99466.26
2018-12-16T06:19:18.903Z,99473.77
2018-12-16T06:21:51.799Z,99465.34
2018-12-16T06:24:25.793Z,99471.77
2018-12-16T06:26:59.388Z,99460.50
2018-12-16T06:29:32.164Z,99457.08
2018-12-16T06:32:05.120Z,99460.16
2018-12-16T06:34:37.742Z,99458.38
2018-12-16T06:37:10.951Z,99458.63
2018-12-16T06:39:44.294Z,99455.44
2018-12-16T06:42:16.899Z,99452.36
2018-12-16T06:44:49.576Z,99454.37
2018-12-16T06:47:22.471Z,99437.25
2018-12-16T06:49:55.189Z,99445.84
2018-12-16T06:52:27.841Z,99451.89
2018-12-16T06:55:03.105Z,99450.13
2018-12-16T06:57:35.829Z,99447.08
2018-12-16T07:00:08.428Z,99452.11
2018-12-16T07:02:41.365Z,99452.98
2018-12-16T07:05:13.934Z,99446.88
2018-12-16T07:07:47.828Z,99453.36
2018-12-16T07:10:20.799Z,99454.35
2018-12-16T07:12:53.362Z,99463.34
2018-12-16T07:15:26.137Z,99455.02
2018-12-16T07:17:59.112Z,99462.20
2018-12-16T07:20:32.447Z,99461.53
2018-12-16T07:23:05.100Z,99461.70
2018-12-16T07:25:39.663Z,99459.83
2018-12-16T07:28:12.236Z,99464.55
2018-12-16T07:30:45.724Z,99457.87
2018-12-16T07:33:19.616Z,99463.78
2018-12-16T07:35:52.290Z,99467.41
2018-12-16T07:38:25.471Z,99475.97
2018-12-16T07:40:59.513Z,99473.22
2018-12-16T07:43:32.907Z,99478.98
2018-12-16T07:46:07.076Z,99487.59
2018-12-16T07:48:40.585Z,99483.75
2018-12-16T07:51:13.163Z,99485.81
2018-12-16T07:53:45.884Z,99489.16
2018-12-16T07:56:18.848Z,99496.75
2018-12-16T07:58:53.247Z,99499.66
2018-12-16T08:01:26.120Z,99495.28
2018-12-16T08:03:59.843Z,99497.88
2018-12-16T08:06:32.593Z,99498.66
2018-12-16T08:09:07.136Z,99506.03
2018-12-16T08:11:40.449Z,99508.58
2018-12-16T08:14:14.043Z,99505.44
2018-12-16T08:16:46.817Z,99515.30
2018-12-16T08:19:19.805Z,99512.47
2018-12-16T08:21:54.376Z,99518.16
2018-12-16T08:24:26.992Z,99513.81
2018-12-16T08:27:01.233Z,99513.01
2018-12-16T08:29:34.631Z,99509.59
2018-12-16T08:32:09.323Z,99515.89
2018-12-16T08:34:42.324Z,99512.87
2018-12-16T08:37:14.906Z,99518.55
2018-12-16T08:39:48.472Z,99518.91
2018-12-16T08:42:21.496Z,99516.88
2018-12-16T08:44:54.067Z,99517.91
2018-12-16T08:47:33.041Z,99514.14
2018-12-16T08:50:09.341Z,99525.05
2018-12-16T08:52:43.127Z,99524.99
2018-12-16T08:55:16.651Z,99523.09
2018-12-16T08:57:49.490Z,99531.56
2018-12-16T09:00:23.098Z,99538.87
2018-12-16T09:02:56.489Z,99550.33
2018-12-16T09:05:29.228Z,99544.17
2018-12-16T09:08:03.993Z,99541.03
2018-12-16T09:10:39.060Z,99546.16
2018-12-16T09:13:15.165Z,99545.98
2018-12-16T09:15:48.413Z,99541.00
2018-12-16T09:18:23.221Z,99535.23
2018-12-16T09:20:56.865Z,99538.09
2018-12-16T09:23:30.350Z,99539.36
2018-12-16T09:26:06.396Z,99539.23
2018-12-16T09:28:39.264Z,99538.00
2018-12-16T09:31:13.823Z,99539.54
2018-12-16T09:33:47.043Z,99540.95
2018-12-16T09:36:20.793Z,99542.30
2018-12-16T09:38:54.643Z,99545.13
2018-12-16T09:41:29.891Z,99543.33
2018-12-16T09:44:03.375Z,99541.24
2018-12-16T09:46:36.103Z,99539.34
2018-12-16T09:49:09.936Z,99542.42
2018-12-16T09:51:44.805Z,99537.31
2018-12-16T09:54:17.490Z,99550.03
2018-12-16T09:56:50.499Z,99548.09
2018-12-16T09:59:25.495Z,99544.98
2018-12-16T10:02:00.907Z,99540.61
2018-12-16T10:04:37.124Z,99543.92
2018-12-16T10:07:11.758Z,99542.73
2018-12-16T10:09:45.814Z,99542.13
2018-12-16T10:12:24.056Z,99535.47
2018-12-16T10:14:56.968Z,99543.45
2018-12-16T10:17:30.491Z,99540.23
2018-12-16T10:20:08.148Z,99536.38
2018-12-16T10:22:45.009Z,99539.22
2018-12-16T10:25:20.356Z,99539.48
2018-12-16T10:27:54.535Z,99535.27
2018-12-16T10:30:31.354Z,99535.41
2018-12-16T10:33:04.261Z,99537.33
2018-12-16T10:35:39.129Z,99535.76
2018-12-16T10:38:12.591Z,99525.38
2018-12-16T10:40:51.318Z,99531.02
2018-12-16T10:43:24.618Z,99532.45
2018-12-16T10:45:58.337Z,99538.46
2018-12-16T10:48:31.999Z,99536.16
2018-12-16T10:51:06.670Z,99539.06
2018-12-16T10:53:41.004Z,99537.49
2018-12-16T10:56:16.824Z,99536.72
2018-12-16T10:58:49.587Z,99539.34
2018-12-16T11:01:28.118Z,99536.94
2018-12-16T11:04:02.123Z,99543.72
2018-12-16T11:06:44.660Z,99541.26
2018-12-16T11:09:18.758Z,99532.92
2018-12-16T11:11:56.159Z,99533.75
2018-12-16T11:14:34.790Z,99528.85
2018-12-16T11:17:11.330Z,99521.48
2018-12-16T11:19:46.151Z,99524.44
2018-12-16T11:22:20.189Z,99525.73
2018-12-16T11:24:52.846Z,99526.47
2018-12-16T11:27:27.313Z,99518.98
2018-12-16T11:30:00.055Z,99520.56
2018-12-16T11:32:36.753Z,99515.63
2018-12-16T11:35:11.767Z,99520.53
2018-12-16T11:37:46.228Z,99530.72
2018-12-16T11:40:19.774Z,99521.94
2018-12-16T11:42:54.264Z,99520.82
2018-12-16T11:45:27.121Z,99510.42
2018-12-16T11:48:01.164Z,99520.56
2018-12-16T11:50:33.813Z,99513.35
2018-12-16T11:53:08.026Z,99509.31
2018-12-16T11:55:43.308Z,99513.55
2018-12-16T11:58:18.486Z,99508.61
2018-12-16T12:00:52.116Z,99506.69
2018-12-16T12:03:26.828Z,99505.00
2018-12-16T12:06:00.067Z,99505.58
2018-12-16T12:08:33.775Z,99506.58
2018-12-16T12:11:10.765Z,99501.34
2018-12-16T12:13:46.227Z,99501.38
2018-12-16T12:16:18.961Z,99509.78
2018-12-16T12:19:01.993Z,99507.79
2018-12-16T12:21:34.804Z,99508.85
2018-12-16T12:24:08.457Z,99507.98
2018-12-16T12:26:44.766Z,99504.49
2018-12-16T12:29:17.711Z,99501.98
2018-12-16T12:31:52.083Z,99497.59
2018-12-16T12:34:26.344Z,99503.72
2018-12-16T12:37:00.599Z,99499.06
2018-12-16T12:39:39.175Z,99502.53
2018-12-16T12:42:11.887Z,99501.55
2018-12-16T12:44:45.658Z,99504.98
2018-12-16T12:47:20.638Z,99507.61
2018-12-16T12:49:54.134Z,99507.30
2018-12-16T12:52:26.813Z,99507.46
2018-12-16T12:55:02.347Z,99505.96
2018-12-16T12:57:36.483Z,99516.50
2018-12-16T13:00:17.232Z,99524.52
2018-12-16T13:02:51.073Z,99518.89
2018-12-16T13:05:25.614Z,99529.92
2018-12-16T13:08:00.328Z,99524.23
2018-12-16T13:10:34.589Z,99521.93
2018-12-16T13:13:09.508Z,99522.52
2018-12-16T13:15:42.478Z,99526.11
2018-12-16T13:18:17.236Z,99518.82
2018-12-16T13:20:51.955Z,99522.27
2018-12-16T13:23:26.874Z,99518.25
2018-12-16T13:26:05.364Z,99520.80
2018-12-16T13:28:39.780Z,99518.86
2018-12-16T13:31:14.584Z,99521.07
2018-12-16T13:33:48.812Z,99524.73
2018-12-16T13:36:24.402Z,99525.41
2018-12-16T13:38:57.435Z,99532.70
2018-12-16T13:41:30.779Z,99531.06
2018-12-16T13:44:06.870Z,99533.84
2018-12-16T13:46:41.734Z,99535.33
2018-12-16T13:49:14.931Z,99535.90
2018-12-16T13:51:49.287Z,99531.23
2018-12-16T13:54:22.225Z,99525.98
2018-12-16T13:56:58.656Z,99529.84
2018-12-16T13:59:33.955Z,99522.92
2018-12-16T14:02:18.909Z,99521.67
2018-12-16T14:04:52.638Z,99514.78
2018-12-16T14:07:25.805Z,99508.00
2018-12-16T14:09:59.391Z,99508.91
2018-12-16T14:12:33.264Z,99511.00
2018-12-16T14:15:08.836Z,99515.14
2018-12-16T14:17:45.801Z,99513.39
2018-12-16T14:20:19.448Z,99515.72
2018-12-16T14:22:53.503Z,99520.20
2018-12-16T14:25:39.642Z,99522.00
2018-12-16T14:28:36.437Z,99528.47
2018-12-16T14:31:12.848Z,99527.40
2018-12-16T14:33:48.367Z,99530.70
2018-12-16T14:36:22.295Z,99534.28
2018-12-16T14:38:59.779Z,99538.10
2018-12-16T14:41:36.009Z,99530.34
2018-12-16T14:44:12.136Z,99526.19
2018-12-16T14:46:48.626Z,99537.55
2018-12-16T14:49:22.377Z,99539.36
2018-12-16T14:51:57.955Z,99542.93
2018-12-16T14:54:33.183Z,99544.63
2018-12-16T14:57:07.920Z,99547.14
2018-12-16T14:59:41.378Z,99543.63
2018-12-16T15:02:14.561Z,99549.94
2018-12-16T15:04:49.758Z,99549.83
2018-12-16T15:07:25.113Z,99557.56
2018-12-16T15:09:59.051Z,99561.36
2018-12-16T15:12:32.979Z,99574.07
2018-12-16T15:15:09.361Z,99574.14
2018-12-16T15:17:47.691Z,99574.84
2018-12-16T15:20:20.994Z,99579.75
2018-12-16T15:22:54.829Z,99588.58
2018-12-16T15:25:29.576Z,99590.59
2018-12-16T15:28:02.888Z,99588.69
2018-12-16T15:30:35.603Z,99592.98
2018-12-16T15:33:17.574Z,99590.05
2018-12-16T15:35:50.861Z,99589.78
2018-12-16T15:38:25.358Z,99591.39
2018-12-16T15:40:58.539Z,99592.53
2018-12-16T15:43:33.422Z,99589.49
2018-12-16T15:46:06.207Z,99593.34
2018-12-16T15:48:39.826Z,99589.55
2018-12-16T15:51:13.867Z,99587.66
2018-12-16T15:53:49.588Z,99585.75
2018-12-16T15:56:22.772Z,99589.98
2018-12-16T15:58:58.538Z,99588.06
2018-12-16T16:01:39.395Z,99593.12
2018-12-16T16:04:14.075Z,99593.02
2018-12-16T16:06:50.819Z,99594.06
2018-12-16T16:09:26.565Z,99595.95
2018-12-16T16:12:04.288Z,99600.16
2018-12-16T16:14:36.909Z,99594.63
2018-12-16T16:17:10.679Z,99592.73
2018-12-16T16:19:44.596Z,99594.20
2018-12-16T16:22:17.438Z,99596.78
2018-12-16T16:24:50.707Z,99592.71
2018-12-16T16:27:26.623Z,99594.92
2018-12-16T16:30:04.199Z,99596.31
2018-12-16T16:32:41.178Z,99606.75
2018-12-16T16:35:19.242Z,99605.77
2018-12-16T16:38:00.490Z,99610.13
2018-12-16T16:40:34.768Z,99611.38
2018-12-16T16:43:10.321Z,99619.42
2018-12-16T16:45:44.927Z,99621.83
2018-12-16T16:48:18.667Z,99617.39
2018-12-16T16:50:52.915Z,99615.95
2018-12-16T16:53:27.586Z,99619.47
2018-12-16T16:56:00.249Z,99620.34
2018-12-16T16:58:33.665Z,99623.72
2018-12-16T17:01:06.364Z,99622.78
2018-12-16T17:03:40.068Z,99627.07
2018-12-16T17:06:13.815Z,99626.16
2018-12-16T17:08:47.777Z,99629.55
2018-12-16T17:11:33.919Z,99633.00
2018-12-16T17:14:12.222Z,99624.91
2018-12-16T17:16:49.942Z,99617.44
2018-12-16T17:19:24.684Z,99622.45
2018-12-16T17:21:59.071Z,99622.53
2018-12-16T17:24:32.503Z,99624.06
2018-12-16T17:27:08.593Z,99626.63
2018-12-16T17:29:42.352Z,99626.80
2018-12-16T17:32:19.468Z,99628.34
2018-12-16T17:34:53.253Z,99626.14
2018-12-16T17:37:26.640Z,99629.17
2018-12-16T17:40:00.140Z,99627.62
2018-12-16T17:42:34.616Z,99630.02
2018-12-16T17:45:08.437Z,99633.31
2018-12-16T17:47:42.384Z,99640.53
2018-12-16T17:50:18.800Z,99643.13
2018-12-16T17:52:52.356Z,99641.13
2018-12-16T17:55:26.914Z,99642.98
2018-12-16T17:58:04.987Z,99645.00
2018-12-16T18:00:39.691Z,99643.52
2018-12-16T18:03:14.648Z,99654.25
2018-12-16T18:05:50.107Z,99651.31
2018-12-16T18:08:25.029Z,99649.41
2018-12-16T18:10:59.352Z,99647.51
2018-12-16T18:13:32.641Z,99650.46
2018-12-16T18:16:07.596Z,99655.03
2018-12-16T18:18:41.076Z,99652.50
2018-12-16T18:21:17.602Z,99653.67
2018-12-16T18:23:51.151Z,99650.44
2018-12-16T18:26:27.811Z,99648.16
2018-12-16T18:29:00.892Z,99651.95
2018-12-16T18:31:33.642Z,99654.28
2018-12-16T18:34:07.248Z,99659.39
2018-12-16T18:36:41.949Z,99658.73
2018-12-16T18:39:16.334Z,99659.89
2018-12-16T18:41:52.257Z,99657.13
2018-12-16T18:44:26.441Z,99664.55
2018-12-16T18:47:00.057Z,99665.50
2018-12-16T18:49:34.879Z,99669.44
2018-12-16T18:52:09.055Z,99677.70
2018-12-16T18:54:44.218Z,99676.83
2018-12-16T18:57:19.986Z,99678.03
2018-12-16T18:59:55.517Z,99678.14
2018-12-16T19:02:30.776Z,99676.94
2018-12-16T19:05:08.681Z,99678.89
2018-12-16T19:07:43.005Z,99676.42
2018-12-16T19:10:18.061Z,99680.58
2018-12-16T19:12:55.658Z,99685.86
2018-12-16T19:15:32.377Z,99681.75
2018-12-16T19:18:05.435Z,99682.47
2018-12-16T19:20:38.707Z,99683.40
2018-12-16T19:23:16.767Z,99684.38
2018-12-16T19:25:51.623Z,99689.11
2018-12-16T19:28:29.776Z,99680.05
2018-12-16T19:31:04.417Z,99688.99
2018-12-16T19:33:37.213Z,99687.79
2018-12-16T19:36:13.624Z,99692.14
2018-12-16T19:38:46.641Z,99696.73
2018-12-16T19:41:20.351Z,99708.40
2018-12-16T19:43:54.395Z,99712.44
2018-12-16T19:46:29.069Z,99706.93
2018-12-16T19:49:04.466Z,99708.47
2018-12-16T19:51:48.375Z,99713.98
2018-12-16T19:54:25.606Z,99713.70
2018-12-16T19:57:05.113Z,99712.89
2018-12-16T19:59:40.201Z,99717.67
2018-12-16T20:02:14.683Z,99724.73
2018-12-16T20:05:02.493Z,99721.67
2018-12-16T20:07:37.608Z,99722.69
2018-12-16T20:10:28.986Z,99728.95
2018-12-16T20:13:03.107Z,99727.53
2018-12-16T20:15:37.481Z,99729.92
2018-12-16T20:18:13.322Z,99733.53
2018-12-16T20:20:51.987Z,99732.66
2018-12-16T20:23:30.985Z,99732.00
2018-12-16T20:26:06.974Z,99729.78
2018-12-16T20:28:52.368Z,99725.75
2018-12-16T20:31:32.092Z,99736.09
2018-12-16T20:34:06.681Z,99733.25
2018-12-16T20:36:40.784Z,99733.69
2018-12-16T20:39:21.430Z,99745.02
2018-12-16T20:41:54.672Z,99741.06
2018-12-16T20:44:32.366Z,99743.52
2018-12-16T20:47:08.477Z,99745.60
2018-12-16T20:49:42.113Z,99748.89
2018-12-16T20:52:15.951Z,99753.24
2018-12-16T20:54:49.840Z,99757.57
2018-12-16T20:57:22.601Z,99755.16
2018-12-16T20:59:56.620Z,99759.27
2018-12-16T21:02:32.471Z,99753.83
2018-12-16T21:05:07.291Z,99758.84
2018-12-16T21:07:44.188Z,99760.87
2018-12-16T21:10:18.538Z,99761.74
2018-12-16T21:12:59.052Z,99767.59
2018-12-16T21:15:38.369Z,99767.16
2018-12-16T21:18:22.516Z,99762.80
2018-12-16T21:20:57.620Z,99768.64
2018-12-16T21:23:33.983Z,99758.78
2018-12-16T21:26:08.750Z,99762.16
2018-12-16T21:28:42.671Z,99756.66
2018-12-16T21:31:18.593Z,99759.78
2018-12-16T21:33:51.711Z,99766.19
2018-12-16T21:36:25.426Z,99765.33
2018-12-16T21:39:00.728Z,99775.13
2018-12-16T21:41:35.042Z,99774.39
2018-12-16T21:44:10.380Z,99779.95
2018-12-16T21:46:45.208Z,99775.59
2018-12-16T21:49:20.389Z,99779.78
2018-12-16T21:51:53.512Z,99781.66
2018-12-16T21:54:29.358Z,99778.69
2018-12-16T21:57:03.057Z,99776.94
2018-12-16T21:59:38.540Z,99774.59
2018-12-16T22:02:11.951Z,99774.40
2018-12-16T22:04:45.826Z,99773.66
2018-12-16T22:07:21.853Z,99775.83
2018-12-16T22:09:55.699Z,99769.88
2018-12-16T22:12:35.829Z,99763.81
2018-12-16T22:15:08.646Z,99760.92
2018-12-16T22:17:41.802Z,99767.38
2018-12-16T22:20:15.197Z,99776.63
2018-12-16T22:22:49.336Z,99780.14
2018-12-16T22:25:25.594Z,99777.67
2018-12-16T22:28:02.256Z,99784.11
2018-12-16T22:30:35.984Z,99783.03
2018-12-16T22:33:09.846Z,99779.70
2018-12-16T22:35:42.739Z,99780.49
2018-12-16T22:38:16.404Z,99776.55
2018-12-16T22:40:49.719Z,99782.13
2018-12-16T22:43:22.479Z,99784.99
2018-12-16T22:45:56.140Z,99798.62
2018-12-16T22:48:30.295Z,99803.52
2018-12-16T22:51:03.222Z,99811.05
2018-12-16T22:53:35.865Z,99810.56
2018-12-16T22:56:09.705Z,99806.50
2018-12-16T22:58:46.494Z,99808.27
2018-12-16T23:01:19.912Z,99800.36
2018-12-16T23:03:55.920Z,99805.09
2018-12-16T23:06:29.632Z,99802.23
2018-12-16T23:09:04.548Z,99804.80
2018-12-16T23:11:57.143Z,99798.46
2018-12-16T23:14:31.068Z,99804.56
2018-12-16T23:17:04.343Z,99804.02
2018-12-16T23:19:39.052Z,99804.73
2018-12-16T23:22:11.927Z,99806.73
2018-12-16T23:24:47.371Z,99810.17
2018-12-16T23:27:20.356Z,99802.33
2018-12-16T23:29:54.984Z,99808.38
2018-12-16T23:32:27.773Z,99805.88
2018-12-16T23:35:01.056Z,99800.73
2018-12-16T23:37:35.358Z,99805.46
2018-12-16T23:40:10.396Z,99812.69
2018-12-16T23:42:44.214Z,99807.80
2018-12-16T23:45:16.226Z,99814.02
2018-12-16T23:47:48.928Z,99818.13
2018-12-16T23:50:22.098Z,99813.20
2018-12-16T23:52:54.923Z,99819.36
2018-12-16T23:55:28.164Z,99819.95
2018-12-16T23:58:01.309Z,99822.83
